Terminal Aerodrome Forecast
Issued by NWS Wilmington, OH

Home | Current Version | Previous Version | Text Only | Print | Product List | Glossary On
Versions: 1 2 3 4 5 6 7 8 9 10 11 12 13 14 15 16 17 18 19 20 21
963
FTUS41 KILN 231507 AAA
TAFDAY
TAF AMD
KDAY 231507Z 2315/2412 20009KT 6SM BR SCT015 BKN250
      TEMPO 2315/2316 BKN015
     FM231600 23009KT P6SM BKN015
     FM232000 22009KT P6SM BKN045
     FM240000 17005KT P6SM BKN040
     FM240300 16005KT 5SM BR OVC015
     FM240600 18011KT P6SM OVC025=

USA.gov is the U.S. government's official web portal to all federal, state and local government web resources and services.